Time;durP1;ratioP1;P1;durP2;ratioP2;P2;SDS_P1;SDS_P2;PMS_P1;PMS_P2;Temp;Humidity;BMP_temperature;BMP_pressure;BME280_temperature;BME280_humidity;BME280_pressure;Samples;Min_cycle;Max_cycle;Signal;HPM_P1;HPM_P2
2023/06/27 00:00:21;;;;;;;0.00;0.00;;;10.80;99.90;;;;;;5046944;28;20045;-74
2023/06/27 00:02:47;;;;;;;0.13;0.13;;;10.70;99.90;;;;;;5046723;28;20048;-74
2023/06/27 00:05:13;;;;;;;0.00;0.00;;;10.70;99.90;;;;;;5046472;28;20041;-74
2023/06/27 00:07:41;;;;;;;0.00;0.00;;;10.70;99.90;;;;;;5046634;28;20419;-74
2023/06/27 00:10:09;;;;;;;0.00;0.00;;;10.70;1.00;;;;;;5046394;28;20049;-74
2023/06/27 00:12:35;;;;;;;0.10;0.10;;;10.70;1.00;;;;;;5046455;28;20053;-73
2023/06/27 00:15:04;;;;;;;0.00;0.00;;;10.60;1.00;;;;;;5046294;28;20091;-74
2023/06/27 00:17:32;;;;;;;0.00;0.00;;;10.70;99.90;;;;;;5046536;28;20546;-74
2023/06/27 00:20:00;;;;;;;0.00;0.00;;;10.60;99.90;;;;;;5046339;28;20496;-74
2023/06/27 00:22:26;;;;;;;0.00;0.00;;;10.60;99.90;;;;;;5046155;28;20077;-74
2023/06/27 00:24:53;;;;;;;0.22;0.22;;;10.60;99.90;;;;;;5046401;28;20381;-74
2023/06/27 00:27:19;;;;;;;0.00;0.00;;;10.50;99.90;;;;;;5046006;28;20044;-74
2023/06/27 00:29:45;;;;;;;0.00;0.00;;;10.50;99.90;;;;;;5045942;28;20053;-74
2023/06/27 00:32:11;;;;;;;0.00;0.00;;;10.50;1.00;;;;;;5045955;28;20053;-74
2023/06/27 00:34:36;;;;;;;0.73;0.63;;;10.50;99.90;;;;;;5045297;28;20399;-74
2023/06/27 00:37:02;;;;;;;0.38;0.20;;;10.50;99.90;;;;;;5045733;28;20151;-75
2023/06/27 00:39:28;;;;;;;1.08;0.32;;;10.50;99.90;;;;;;5045485;28;20470;-74
2023/06/27 00:41:54;;;;;;;0.00;0.00;;;10.40;99.90;;;;;;5045701;28;20076;-73
2023/06/27 00:44:20;;;;;;;0.00;0.00;;;10.40;99.90;;;;;;5045659;28;20049;-74
2023/06/27 00:46:49;;;;;;;0.03;0.03;;;10.40;1.00;;;;;;5045736;28;20071;-74
2023/06/27 00:49:17;;;;;;;0.00;0.00;;;10.30;1.00;;;;;;5045934;28;20127;-74
2023/06/27 00:51:45;;;;;;;0.00;0.00;;;10.30;1.00;;;;;;5045677;28;20041;-74
2023/06/27 00:54:10;;;;;;;0.75;0.55;;;10.40;99.90;;;;;;5045855;28;20049;-74
2023/06/27 00:56:36;;;;;;;0.00;0.00;;;10.40;99.90;;;;;;5045348;28;20158;-74
2023/06/27 00:59:02;;;;;;;0.22;0.17;;;10.40;99.90;;;;;;5045777;28;20049;-73
2023/06/27 01:01:31;;;;;;;0.00;0.00;;;10.40;99.90;;;;;;5045570;28;20045;-74
2023/06/27 01:03:57;;;;;;;0.00;0.00;;;10.40;99.90;;;;;;5045324;28;20124;-74
2023/06/27 01:06:45;;;;;;;0.00;0.00;;;10.40;99.90;;;;;;5045380;28;20090;-74
2023/06/27 01:09:34;;;;;;;0.00;0.00;;;10.30;99.90;;;;;;5045209;28;20060;-73
2023/06/27 01:12:13;;;;;;;0.35;0.17;;;10.30;99.90;;;;;;5044926;28;20061;-74
2023/06/27 01:14:41;;;;;;;0.00;0.00;;;10.30;99.90;;;;;;5045160;28;20045;-74
2023/06/27 01:17:07;;;;;;;0.00;0.00;;;10.30;99.90;;;;;;5044642;28;20045;-74
2023/06/27 01:19:34;;;;;;;0.25;0.25;;;10.20;99.90;;;;;;5044716;28;20507;-74
2023/06/27 01:22:06;;;;;;;0.00;0.00;;;10.20;99.90;;;;;;5044795;28;20075;-74
2023/06/27 01:24:32;;;;;;;0.00;0.00;;;10.10;99.90;;;;;;5044890;28;20045;-74
2023/06/27 01:26:58;;;;;;;0.52;0.40;;;10.10;99.90;;;;;;5045018;28;20045;-74
2023/06/27 01:29:25;;;;;;;0.47;0.47;;;10.10;99.90;;;;;;5044974;28;20049;-75
2023/06/27 01:32:17;;;;;;;19.48;0.85;;;10.00;99.90;;;;;;5045144;28;20394;-74
2023/06/27 01:35:19;;;;;;;0.10;0.10;;;10.00;99.90;;;;;;5044623;28;20700;-74
2023/06/27 01:38:09;;;;;;;0.00;0.00;;;10.00;99.90;;;;;;5023648;28;20053;-74
2023/06/27 01:40:37;;;;;;;0.00;0.00;;;9.90;99.90;;;;;;5024341;28;20041;-74
2023/06/27 01:43:10;;;;;;;0.22;0.20;;;9.90;99.90;;;;;;5024281;28;20450;-74
2023/06/27 01:45:38;;;;;;;0.10;0.10;;;9.90;99.90;;;;;;5024294;28;20135;-74
2023/06/27 01:48:05;;;;;;;0.00;0.00;;;9.90;99.90;;;;;;5022890;28;20041;-74
2023/06/27 01:50:30;;;;;;;0.00;0.00;;;9.80;99.90;;;;;;5027784;28;20049;-74
2023/06/27 01:52:56;;;;;;;0.00;0.00;;;9.90;1.00;;;;;;5044713;28;20107;-74
2023/06/27 01:55:22;;;;;;;0.13;0.13;;;9.80;1.00;;;;;;5044304;28;20044;-74
2023/06/27 01:57:49;;;;;;;0.03;0.03;;;9.80;1.00;;;;;;5042858;28;20049;-73
2023/06/27 02:00:15;;;;;;;1.35;0.95;;;9.80;1.00;;;;;;5044177;28;20129;-74
2023/06/27 02:02:41;;;;;;;0.00;0.00;;;9.80;1.00;;;;;;5044809;28;20045;-74
2023/06/27 02:05:07;;;;;;;0.00;0.00;;;9.80;1.00;;;;;;5044566;28;20048;-74
2023/06/27 02:07:33;;;;;;;0.20;0.20;;;9.70;1.00;;;;;;5043519;28;20041;-73
2023/06/27 02:09:59;;;;;;;0.00;0.00;;;9.70;1.00;;;;;;5044630;28;20569;-74
2023/06/27 02:12:25;;;;;;;0.93;0.50;;;9.70;1.00;;;;;;5043876;28;20558;-74
2023/06/27 02:14:50;;;;;;;0.00;0.00;;;9.80;1.00;;;;;;5044434;28;20075;-73
2023/06/27 02:17:16;;;;;;;0.40;0.20;;;9.70;1.00;;;;;;5044343;28;20108;-73
2023/06/27 02:19:41;;;;;;;0.10;0.00;;;9.70;1.00;;;;;;5044455;28;20045;-74
2023/06/27 02:22:07;;;;;;;0.00;0.00;;;9.70;1.00;;;;;;5044682;28;20458;-74
2023/06/27 02:24:33;;;;;;;0.00;0.00;;;9.60;1.00;;;;;;5044129;28;20037;-74
2023/06/27 02:26:58;;;;;;;0.00;0.00;;;9.70;1.00;;;;;;5043958;28;20128;-74
2023/06/27 02:29:24;;;;;;;0.00;0.00;;;9.60;3.10;;;;;;5048376;28;20407;-75
2023/06/27 02:31:49;;;;;;;0.00;0.00;;;9.60;13.60;;;;;;5048519;28;20475;-74
2023/06/27 02:34:15;;;;;;;0.57;0.57;;;9.50;1.00;;;;;;5048065;28;20045;-74
2023/06/27 02:36:41;;;;;;;0.00;0.00;;;9.50;1.00;;;;;;5048270;28;20041;-74
2023/06/27 02:39:07;;;;;;;0.00;0.00;;;9.50;11.90;;;;;;5048220;28;20045;-74
2023/06/27 02:41:32;;;;;;;0.00;0.00;;;9.50;24.40;;;;;;5046761;28;20041;-73
2023/06/27 02:43:58;;;;;;;0.00;0.00;;;9.50;48.70;;;;;;5045871;28;20179;-74
2023/06/27 02:46:24;;;;;;;0.20;0.20;;;9.50;23.30;;;;;;5045979;28;20380;-74
2023/06/27 02:48:49;;;;;;;0.00;0.00;;;9.50;76.70;;;;;;5044015;28;20045;-74
2023/06/27 02:51:15;;;;;;;0.35;0.28;;;9.50;99.90;;;;;;5045260;28;20155;-74
2023/06/27 02:53:40;;;;;;;0.00;0.00;;;9.50;99.90;;;;;;5045395;28;20091;-74
2023/06/27 02:56:07;;;;;;;0.50;0.40;;;9.60;99.90;;;;;;5045748;28;20107;-74
2023/06/27 02:58:34;;;;;;;0.65;0.40;;;9.50;99.90;;;;;;5045950;28;20060;-74
2023/06/27 03:01:01;;;;;;;0.10;0.10;;;9.50;99.90;;;;;;5045298;28;20415;-74
2023/06/27 03:03:27;;;;;;;0.00;0.00;;;9.50;99.90;;;;;;5045461;28;20044;-74
2023/06/27 03:05:53;;;;;;;0.00;0.00;;;9.60;99.90;;;;;;5045227;28;20403;-74
2023/06/27 03:08:18;;;;;;;0.08;0.08;;;9.60;99.90;;;;;;5045208;28;20127;-74
2023/06/27 03:10:44;;;;;;;0.13;0.13;;;9.60;99.90;;;;;;5045229;28;20052;-74
2023/06/27 03:13:10;;;;;;;0.08;0.08;;;9.60;99.90;;;;;;5045414;28;20056;-74
2023/06/27 03:15:36;;;;;;;0.00;0.00;;;9.60;99.90;;;;;;5045186;28;20061;-74
2023/06/27 03:18:02;;;;;;;0.55;0.40;;;9.60;99.90;;;;;;5045157;28;20055;-74
2023/06/27 03:20:27;;;;;;;0.10;0.10;;;9.60;99.90;;;;;;5045261;28;20280;-74
2023/06/27 03:22:53;;;;;;;0.10;0.10;;;9.60;99.90;;;;;;5045168;28;20044;-74
2023/06/27 03:25:19;;;;;;;1.75;0.90;;;9.60;99.90;;;;;;5044953;28;20084;-74
2023/06/27 03:27:45;;;;;;;0.10;0.10;;;9.70;99.90;;;;;;5045030;28;20053;-74
2023/06/27 03:30:12;;;;;;;0.00;0.00;;;9.70;99.90;;;;;;5045142;28;20037;-74
2023/06/27 03:32:38;;;;;;;0.30;0.30;;;9.70;99.90;;;;;;5044274;28;20041;-74
2023/06/27 03:35:04;;;;;;;0.00;0.00;;;9.70;99.90;;;;;;5045022;28;20130;-74
2023/06/27 03:37:30;;;;;;;0.40;0.40;;;9.80;99.90;;;;;;5044534;28;20106;-74
2023/06/27 03:39:56;;;;;;;0.03;0.03;;;9.80;99.90;;;;;;5044384;28;20044;-74
2023/06/27 03:42:22;;;;;;;0.35;0.28;;;9.80;99.90;;;;;;5044622;28;20049;-74
2023/06/27 03:44:48;;;;;;;0.38;0.30;;;10.00;99.90;;;;;;5045093;28;20056;-74
2023/06/27 03:47:13;;;;;;;0.00;0.00;;;10.10;99.90;;;;;;5044693;28;20045;-74
2023/06/27 03:49:39;;;;;;;0.55;0.20;;;10.10;99.90;;;;;;5044766;28;20087;-73
2023/06/27 03:52:05;;;;;;;0.00;0.00;;;10.10;99.90;;;;;;5044498;28;20037;-74
2023/06/27 03:54:30;;;;;;;0.00;0.00;;;10.20;99.90;;;;;;5044538;28;20873;-74
2023/06/27 03:56:56;;;;;;;0.03;0.03;;;10.20;99.90;;;;;;5044665;28;20487;-74
2023/06/27 03:59:22;;;;;;;0.00;0.00;;;10.30;99.90;;;;;;5044502;28;20045;-74
2023/06/27 04:01:48;;;;;;;1.35;1.08;;;10.40;99.90;;;;;;5044439;28;20072;-74
2023/06/27 04:04:13;;;;;;;2.00;1.17;;;10.40;99.90;;;;;;5044281;28;20045;-74
2023/06/27 04:06:39;;;;;;;0.13;0.13;;;10.50;99.90;;;;;;5044903;28;20045;-74
2023/06/27 04:09:06;;;;;;;0.82;0.57;;;10.60;99.90;;;;;;5044545;28;20088;-74
2023/06/27 04:11:32;;;;;;;0.00;0.00;;;10.70;99.90;;;;;;5043706;28;20061;-74
2023/06/27 04:14:00;;;;;;;0.85;0.68;;;10.70;99.90;;;;;;5043942;28;20045;-74
2023/06/27 04:16:27;;;;;;;2.10;1.38;;;11.10;99.90;;;;;;5037989;28;20045;-74
2023/06/27 04:18:53;;;;;;;0.20;0.20;;;10.80;99.90;;;;;;5047757;28;20487;-74
2023/06/27 04:21:19;;;;;;;1.85;1.00;;;10.80;99.90;;;;;;5034278;28;20041;-74
2023/06/27 04:23:45;;;;;;;0.10;0.10;;;10.90;99.90;;;;;;5033074;28;20495;-74
2023/06/27 04:26:15;;;;;;;0.10;0.10;;;11.00;99.90;;;;;;5035854;28;20475;-74
2023/06/27 04:28:43;;;;;;;0.70;0.70;;;11.20;99.90;;;;;;5034537;28;20094;-74
2023/06/27 04:31:09;;;;;;;0.13;0.10;;;11.50;99.90;;;;;;5035089;28;20083;-74
2023/06/27 04:33:39;;;;;;;0.60;0.55;;;11.80;99.90;;;;;;5032127;28;20500;-74
2023/06/27 04:36:05;;;;;;;0.00;0.00;;;12.20;99.90;;;;;;5048067;28;20166;-73
2023/06/27 04:38:38;;;;;;;1.55;1.20;;;12.40;99.90;;;;;;5034219;28;20044;-74
2023/06/27 04:41:08;;;;;;;0.43;0.25;;;12.70;99.90;;;;;;5033585;28;20427;-74
2023/06/27 04:43:34;;;;;;;0.43;0.30;;;12.90;99.90;;;;;;5024209;28;20041;-74
2023/06/27 04:46:00;;;;;;;0.85;0.75;;;12.90;99.90;;;;;;5023732;28;20407;-74
2023/06/27 04:48:27;;;;;;;0.35;0.20;;;13.00;99.90;;;;;;5023637;28;20045;-74
2023/06/27 04:50:53;;;;;;;0.00;0.00;;;13.20;99.90;;;;;;5023811;28;20057;-74
2023/06/27 04:53:23;;;;;;;0.10;0.10;;;13.60;99.90;;;;;;5043255;28;20482;-74
2023/06/27 04:55:50;;;;;;;0.47;0.45;;;14.50;99.90;;;;;;5043626;28;20274;-74
2023/06/27 04:58:16;;;;;;;0.10;0.10;;;15.60;99.90;;;;;;5043731;28;20411;-74
2023/06/27 05:00:47;;;;;;;0.03;0.03;;;16.60;1.00;;;;;;5042592;28;20041;-74
2023/06/27 05:03:15;;;;;;;0.10;0.10;;;17.50;99.90;;;;;;5040278;28;20047;-74
2023/06/27 05:05:41;;;;;;;0.20;0.20;;;18.20;99.90;;;;;;5040880;28;20466;-74
2023/06/27 05:08:07;;;;;;;0.35;0.32;;;18.70;99.90;;;;;;5040493;28;20483;-74
2023/06/27 05:10:33;;;;;;;1.50;0.82;;;19.20;99.90;;;;;;5039774;28;20516;-73
2023/06/27 05:13:00;;;;;;;0.05;0.05;;;19.60;99.90;;;;;;5040011;28;20098;-73
2023/06/27 05:15:26;;;;;;;0.65;0.65;;;20.10;81.50;;;;;;5040242;28;20049;-73
2023/06/27 05:17:54;;;;;;;0.25;0.13;;;20.50;9.10;;;;;;5040460;28;21011;-73
2023/06/27 05:20:20;;;;;;;0.00;0.00;;;20.90;99.90;;;;;;5040483;28;20072;-73
2023/06/27 05:22:46;;;;;;;0.60;0.40;;;21.20;99.90;;;;;;5039999;28;20534;-73
2023/06/27 05:25:12;;;;;;;0.10;0.10;;;21.50;99.90;;;;;;5041997;28;20098;-73
2023/06/27 05:27:38;;;;;;;0.00;0.00;;;22.00;99.90;;;;;;5042845;28;20486;-73
2023/06/27 05:30:04;;;;;;;0.65;0.15;;;22.30;99.90;;;;;;5042271;28;20049;-73
2023/06/27 05:32:30;;;;;;;0.50;0.28;;;22.20;99.90;;;;;;5042261;28;20049;-73
2023/06/27 05:34:56;;;;;;;0.00;0.00;;;22.30;99.90;;;;;;5043009;28;20642;-73
2023/06/27 05:37:21;;;;;;;0.20;0.20;;;22.60;99.90;;;;;;5042803;28;20044;-73
2023/06/27 05:39:47;;;;;;;0.00;0.00;;;22.90;99.90;;;;;;5042294;28;20041;-73
2023/06/27 05:42:13;;;;;;;0.28;0.28;;;22.90;99.90;;;;;;5040349;28;20227;-72
2023/06/27 05:44:38;;;;;;;0.00;0.00;;;23.20;99.90;;;;;;5040733;28;20047;-73
2023/06/27 05:47:05;;;;;;;0.10;0.10;;;23.20;99.90;;;;;;5040353;28;20050;-73
2023/06/27 05:49:30;;;;;;;0.03;0.03;;;23.20;99.90;;;;;;5040312;28;20041;-73
2023/06/27 05:51:57;;;;;;;0.00;0.00;;;23.50;99.90;;;;;;5040445;28;20048;-73
2023/06/27 05:54:23;;;;;;;0.75;0.43;;;23.50;99.90;;;;;;5040495;28;20049;-73
2023/06/27 05:56:49;;;;;;;0.00;0.00;;;24.00;99.90;;;;;;5041714;28;20084;-73
2023/06/27 05:59:14;;;;;;;0.20;0.10;;;24.40;99.90;;;;;;5041917;28;20052;-73
2023/06/27 06:01:40;;;;;;;0.00;0.00;;;24.50;99.90;;;;;;5042274;28;20041;-73
2023/06/27 06:04:06;;;;;;;0.20;0.20;;;24.80;99.90;;;;;;5042305;28;20152;-73
2023/06/27 06:06:37;;;;;;;0.00;0.00;;;25.00;99.90;;;;;;5042241;28;20051;-73
2023/06/27 06:09:05;;;;;;;0.25;0.25;;;25.30;99.90;;;;;;5042028;28;20053;-73
2023/06/27 06:11:31;;;;;;;0.15;0.10;;;25.10;25.40;;;;;;5041732;28;20061;-73
2023/06/27 06:13:58;;;;;;;0.00;0.00;;;25.10;13.20;;;;;;5041899;28;20103;-73
2023/06/27 06:16:24;;;;;;;0.93;0.55;;;25.40;36.40;;;;;;5042040;28;20392;-73
2023/06/27 06:18:49;;;;;;;0.00;0.00;;;25.40;1.00;;;;;;5042181;28;20115;-73
2023/06/27 06:21:15;;;;;;;1.10;0.90;;;24.90;1.00;;;;;;5041299;28;20110;-73
2023/06/27 06:23:41;;;;;;;0.10;0.10;;;25.10;1.00;;;;;;5042121;28;20091;-73
2023/06/27 06:26:06;;;;;;;0.00;0.00;;;24.60;1.00;;;;;;5041913;28;20114;-73
2023/06/27 06:28:32;;;;;;;0.00;0.00;;;24.80;1.00;;;;;;5042111;28;20089;-73
2023/06/27 06:30:58;;;;;;;3.40;1.25;;;25.20;1.00;;;;;;5042276;28;20036;-73
2023/06/27 06:33:24;;;;;;;0.00;0.00;;;24.60;1.00;;;;;;5041966;28;20048;-73
2023/06/27 06:35:49;;;;;;;3.60;0.80;;;24.70;1.00;;;;;;5041927;28;20445;-73
2023/06/27 06:38:15;;;;;;;0.00;0.00;;;25.10;1.00;;;;;;5041722;28;20507;-73
2023/06/27 06:40:42;;;;;;;0.20;0.17;;;25.70;1.00;;;;;;5041935;28;20072;-73
2023/06/27 06:43:08;;;;;;;0.32;0.20;;;25.80;1.00;;;;;;5041980;28;20049;-73
2023/06/27 06:45:33;;;;;;;3.47;1.02;;;25.70;1.00;;;;;;5036064;28;20077;-73
2023/06/27 06:47:59;;;;;;;0.15;0.15;;;26.30;1.00;;;;;;5022568;28;20046;-73
2023/06/27 06:50:25;;;;;;;0.10;0.10;;;26.20;1.00;;;;;;5020459;28;20051;-73
2023/06/27 06:52:50;;;;;;;2.17;0.75;;;26.40;1.00;;;;;;5021286;28;20052;-73
2023/06/27 06:55:16;;;;;;;0.40;0.20;;;26.40;1.00;;;;;;5031978;28;20045;-72
2023/06/27 06:57:42;;;;;;;0.00;0.00;;;26.40;1.00;;;;;;5032622;28;20304;-73
2023/06/27 07:00:08;;;;;;;0.00;0.00;;;26.50;1.00;;;;;;5029146;28;20046;-73
2023/06/27 07:02:34;;;;;;;0.00;0.00;;;27.00;1.00;;;;;;5021923;28;20459;-73
2023/06/27 07:04:59;;;;;;;0.28;0.17;;;27.40;1.00;;;;;;5021970;28;20037;-73
2023/06/27 07:07:25;;;;;;;0.10;0.10;;;26.90;99.90;;;;;;5021542;28;20049;-73
2023/06/27 07:09:51;;;;;;;0.63;0.43;;;27.20;99.90;;;;;;5021840;28;20041;-73
2023/06/27 07:12:17;;;;;;;0.15;0.13;;;27.20;99.90;;;;;;5020513;28;20140;-73
2023/06/27 07:14:43;;;;;;;0.00;0.00;;;27.20;99.90;;;;;;5022856;28;20045;-73
2023/06/27 07:17:09;;;;;;;0.00;0.00;;;27.00;99.90;;;;;;5025272;28;20048;-73
2023/06/27 07:19:34;;;;;;;0.43;0.28;;;27.30;99.90;;;;;;5025423;28;20070;-73
2023/06/27 07:22:00;;;;;;;2.40;0.13;;;27.30;99.90;;;;;;5025195;28;20101;-73
2023/06/27 07:24:25;;;;;;;17.23;0.88;;;27.20;99.90;;;;;;5025262;28;20056;-73
2023/06/27 07:26:51;;;;;;;0.00;0.00;;;26.70;99.90;;;;;;5025225;28;20080;-73
2023/06/27 07:29:17;;;;;;;0.30;0.20;;;25.10;99.90;;;;;;5025302;28;20480;-73
2023/06/27 07:31:43;;;;;;;0.45;0.22;;;24.80;99.90;;;;;;5025100;28;20502;-73
2023/06/27 07:34:08;;;;;;;0.13;0.10;;;24.60;99.90;;;;;;5025186;28;20056;-73
2023/06/27 07:36:35;;;;;;;0.10;0.10;;;24.40;99.90;;;;;;5022370;28;20162;-73
2023/06/27 07:39:00;;;;;;;0.00;0.00;;;24.40;99.90;;;;;;5022526;28;20504;-73
2023/06/27 07:41:28;;;;;;;0.00;0.00;;;24.40;99.90;;;;;;5022764;28;20079;-73
2023/06/27 07:43:54;;;;;;;0.00;0.00;;;24.70;99.90;;;;;;5022236;28;20520;-73
2023/06/27 07:46:20;;;;;;;0.00;0.00;;;25.10;99.90;;;;;;5022136;28;20104;-73
2023/06/27 07:48:45;;;;;;;0.00;0.00;;;25.40;99.90;;;;;;5022342;28;20404;-73
2023/06/27 07:51:11;;;;;;;0.77;0.70;;;25.90;99.90;;;;;;5021889;28;20049;-73
2023/06/27 07:53:36;;;;;;;0.00;0.00;;;26.70;99.90;;;;;;5022881;28;20112;-73
2023/06/27 07:56:02;;;;;;;0.10;0.10;;;27.10;99.90;;;;;;5022328;28;20126;-72
2023/06/27 07:58:28;;;;;;;0.10;0.10;;;27.60;99.90;;;;;;5022667;28;20132;-73
2023/06/27 08:00:54;;;;;;;11.90;1.90;;;28.20;99.90;;;;;;5022566;28;20070;-72
2023/06/27 08:03:20;;;;;;;0.00;0.00;;;29.10;99.90;;;;;;5022668;28;20103;-73
2023/06/27 08:05:45;;;;;;;6.50;0.98;;;29.40;99.90;;;;;;5022543;28;20045;-73
2023/06/27 08:08:11;;;;;;;0.55;0.13;;;28.70;99.90;;;;;;5023014;28;20049;-73
2023/06/27 08:10:37;;;;;;;0.30;0.20;;;28.30;99.90;;;;;;5023333;28;20049;-73
2023/06/27 08:13:02;;;;;;;0.10;0.10;;;27.90;99.90;;;;;;5024530;28;20557;-73
2023/06/27 08:15:28;;;;;;;0.00;0.00;;;28.00;99.90;;;;;;5024450;28;20049;-73
2023/06/27 08:17:54;;;;;;;0.10;0.10;;;28.10;99.90;;;;;;5024369;28;20103;-73
2023/06/27 08:20:19;;;;;;;0.00;0.00;;;27.50;99.90;;;;;;5024375;28;20049;-73
2023/06/27 08:22:45;;;;;;;0.10;0.10;;;27.80;99.90;;;;;;5023978;28;20063;-73
2023/06/27 08:25:11;;;;;;;0.00;0.00;;;28.00;99.90;;;;;;5023875;28;20050;-73
2023/06/27 08:27:36;;;;;;;0.00;0.00;;;27.00;99.90;;;;;;5023853;28;20509;-73
2023/06/27 08:30:02;;;;;;;0.00;0.00;;;25.90;99.90;;;;;;5023903;28;20107;-73
2023/06/27 08:32:28;;;;;;;0.00;0.00;;;26.00;99.90;;;;;;5023867;28;20476;-73
2023/06/27 08:34:54;;;;;;;0.38;0.13;;;26.40;99.90;;;;;;5023838;28;20116;-73
2023/06/27 08:37:21;;;;;;;0.05;0.03;;;27.50;99.90;;;;;;5023785;28;20047;-73
2023/06/27 08:39:51;;;;;;;0.00;0.00;;;27.40;99.90;;;;;;5023289;28;20127;-73
2023/06/27 08:42:17;;;;;;;0.32;0.10;;;26.40;99.90;;;;;;5024167;28;20046;-73
2023/06/27 08:44:43;;;;;;;0.00;0.00;;;25.40;99.90;;;;;;5023659;28;20047;-73
2023/06/27 08:47:12;;;;;;;1.75;1.05;;;24.80;99.90;;;;;;5023973;28;20037;-73
2023/06/27 08:49:42;;;;;;;0.00;0.00;;;24.90;99.90;;;;;;5023682;28;20492;-73
2023/06/27 08:52:13;;;;;;;0.00;0.00;;;24.70;99.90;;;;;;5023283;28;20037;-73
2023/06/27 08:54:46;;;;;;;0.00;0.00;;;25.20;99.90;;;;;;5023311;28;20049;-73
2023/06/27 08:57:13;;;;;;;0.00;0.00;;;25.80;99.90;;;;;;5023398;28;20045;-73
2023/06/27 08:59:42;;;;;;;0.00;0.00;;;25.70;99.90;;;;;;5023506;28;20041;-73
2023/06/27 09:02:12;;;;;;;0.80;0.50;;;25.10;99.90;;;;;;5023207;28;20045;-73
2023/06/27 09:04:41;;;;;;;1.95;0.73;;;24.20;99.90;;;;;;5023154;28;20108;-73
2023/06/27 09:07:07;;;;;;;0.00;0.00;;;23.80;99.90;;;;;;5022981;28;20053;-73
2023/06/27 09:09:34;;;;;;;1.55;0.90;;;23.90;99.90;;;;;;5023078;28;20042;-73
2023/06/27 09:12:02;;;;;;;0.00;0.00;;;24.50;99.90;;;;;;5022726;28;20064;-73
2023/06/27 09:14:27;;;;;;;0.00;0.00;;;25.40;99.90;;;;;;5023012;28;20046;-73
2023/06/27 09:16:53;;;;;;;0.00;0.00;;;26.00;99.90;;;;;;5022937;28;20046;-73
2023/06/27 09:19:20;;;;;;;0.00;0.00;;;26.40;99.90;;;;;;5037875;28;20952;-73
2023/06/27 09:21:48;;;;;;;0.00;0.00;;;26.20;99.90;;;;;;5022987;28;20075;-73
2023/06/27 09:24:14;;;;;;;0.00;0.00;;;26.60;99.90;;;;;;5022713;28;20060;-73
2023/06/27 09:26:40;;;;;;;0.35;0.28;;;27.20;99.90;;;;;;5023003;28;20045;-73
2023/06/27 09:29:06;;;;;;;0.17;0.17;;;27.60;99.90;;;;;;5022615;28;20400;-73
2023/06/27 09:31:33;;;;;;;0.00;0.00;;;27.80;99.90;;;;;;5022266;28;20057;-73
2023/06/27 09:34:06;;;;;;;0.20;0.08;;;28.50;99.90;;;;;;5022432;28;20484;-73
2023/06/27 09:36:40;;;;;;;0.00;0.00;;;28.30;99.90;;;;;;5022241;28;21064;-73
2023/06/27 09:39:07;;;;;;;0.85;0.38;;;27.80;99.90;;;;;;5022328;28;20052;-73
2023/06/27 09:41:44;;;;;;;0.13;0.13;;;27.60;99.90;;;;;;5022411;28;20168;-73
2023/06/27 09:44:18;;;;;;;0.00;0.00;;;28.00;99.90;;;;;;5022325;28;20492;-73
2023/06/27 09:46:45;;;;;;;0.20;0.15;;;27.70;99.90;;;;;;5022415;28;20042;-73
2023/06/27 09:49:11;;;;;;;0.00;0.00;;;27.30;99.90;;;;;;5022612;28;20073;-73
2023/06/27 09:51:38;;;;;;;0.25;0.22;;;26.90;99.90;;;;;;5022443;28;20041;-72
2023/06/27 09:54:05;;;;;;;0.10;0.08;;;26.60;99.90;;;;;;5022317;28;20045;-73
2023/06/27 09:56:32;;;;;;;10.40;1.00;;;26.90;99.90;;;;;;5022282;28;20081;-73
2023/06/27 09:59:07;;;;;;;0.00;0.00;;;27.10;99.90;;;;;;5022234;28;20064;-73
2023/06/27 10:01:36;;;;;;;0.73;0.45;;;26.80;99.90;;;;;;5022303;28;20112;-73
2023/06/27 10:04:02;;;;;;;0.00;0.00;;;26.80;99.90;;;;;;5022380;28;20128;-73
2023/06/27 10:06:29;;;;;;;0.00;0.00;;;26.50;99.90;;;;;;5022600;28;20037;-73
2023/06/27 10:08:55;;;;;;;0.25;0.20;;;26.30;99.90;;;;;;5022047;28;20087;-73
2023/06/27 10:11:22;;;;;;;0.00;0.00;;;26.30;99.90;;;;;;5021767;28;20054;-73
2023/06/27 10:13:49;;;;;;;0.13;0.08;;;25.90;99.90;;;;;;5021917;28;20045;-73
2023/06/27 10:16:16;;;;;;;1.85;0.85;;;25.60;99.90;;;;;;5022110;28;20414;-73
2023/06/27 10:18:42;;;;;;;0.00;0.00;;;25.30;99.90;;;;;;5021946;28;20049;-73
2023/06/27 10:21:09;;;;;;;0.00;0.00;;;25.10;99.90;;;;;;5021227;28;20046;-73
2023/06/27 10:23:37;;;;;;;0.30;0.30;;;25.00;99.90;;;;;;5022049;28;20045;-73
2023/06/27 10:26:03;;;;;;;0.35;0.35;;;25.10;99.90;;;;;;5022249;28;20052;-73
2023/06/27 10:28:33;;;;;;;0.28;0.20;;;25.60;99.90;;;;;;5022233;28;20045;-73
2023/06/27 10:30:58;;;;;;;0.40;0.35;;;25.90;99.90;;;;;;5022331;28;20103;-73
2023/06/27 10:33:28;;;;;;;0.10;0.10;;;25.70;99.90;;;;;;5021944;28;20050;-73
2023/06/27 10:36:05;;;;;;;0.00;0.00;;;26.00;99.90;;;;;;5022165;28;20059;-73
2023/06/27 10:38:45;;;;;;;0.00;0.00;;;25.90;99.90;;;;;;5021908;28;20053;-73
2023/06/27 10:41:33;;;;;;;0.10;0.10;;;26.00;99.90;;;;;;5021897;28;20087;-73
2023/06/27 10:44:09;;;;;;;0.82;0.15;;;26.00;99.90;;;;;;5021856;28;20056;-73
2023/06/27 10:46:35;;;;;;;0.17;0.10;;;25.80;99.90;;;;;;5021809;28;20054;-73
2023/06/27 10:49:06;;;;;;;0.00;0.00;;;25.90;99.90;;;;;;5023591;28;20562;-73
2023/06/27 10:51:42;;;;;;;1.80;0.30;;;26.00;99.90;;;;;;5025748;28;20183;-73
2023/06/27 10:54:08;;;;;;;0.00;0.00;;;26.00;99.90;;;;;;5025993;28;20049;-73
2023/06/27 10:56:36;;;;;;;0.00;0.00;;;26.00;99.90;;;;;;5025775;28;20164;-73
2023/06/27 10:59:03;;;;;;;2.63;0.30;;;26.00;99.90;;;;;;5025339;28;20721;-73
2023/06/27 11:01:30;;;;;;;0.00;0.00;;;26.10;99.90;;;;;;5025338;28;20060;-73
2023/06/27 11:03:59;;;;;;;2.63;0.90;;;26.30;99.90;;;;;;5025164;28;20492;-73
2023/06/27 11:06:41;;;;;;;0.20;0.10;;;26.50;99.90;;;;;;5025214;28;20569;-73
2023/06/27 11:09:10;;;;;;;0.00;0.00;;;26.60;99.90;;;;;;5025115;28;20511;-73
2023/06/27 11:11:37;;;;;;;0.00;0.00;;;26.90;99.90;;;;;;5025100;28;20054;-73
2023/06/27 11:14:08;;;;;;;0.00;0.00;;;27.00;99.90;;;;;;5025068;28;20124;-73
2023/06/27 11:16:34;;;;;;;2.00;0.63;;;27.00;99.90;;;;;;5025191;28;20073;-73
2023/06/27 11:19:04;;;;;;;0.30;0.15;;;26.90;99.90;;;;;;5025247;28;20045;-73
2023/06/27 11:21:30;;;;;;;0.00;0.00;;;26.90;99.90;;;;;;5025143;28;20626;-73
2023/06/27 11:23:58;;;;;;;0.00;0.00;;;27.00;99.90;;;;;;5025379;28;20429;-72
2023/06/27 11:26:24;;;;;;;0.98;0.35;;;27.20;99.90;;;;;;5025016;28;20091;-73
2023/06/27 11:28:50;;;;;;;0.20;0.10;;;27.40;99.90;;;;;;5024816;28;20124;-73
2023/06/27 11:31:16;;;;;;;0.00;0.00;;;27.40;99.90;;;;;;5025089;28;20120;-73
2023/06/27 11:33:41;;;;;;;0.17;0.10;;;27.10;99.90;;;;;;5024928;28;20041;-73
2023/06/27 11:36:09;;;;;;;0.52;0.22;;;26.90;99.90;;;;;;5024841;28;20454;-72
2023/06/27 11:38:35;;;;;;;0.00;0.00;;;26.30;99.90;;;;;;5024602;28;20056;-73
2023/06/27 11:41:01;;;;;;;0.17;0.05;;;26.00;99.90;;;;;;5024748;28;20107;-73
2023/06/27 11:43:27;;;;;;;0.20;0.20;;;25.60;99.90;;;;;;5024519;28;20049;-73
2023/06/27 11:45:55;;;;;;;0.00;0.00;;;25.70;99.90;;;;;;5024688;28;20041;-72
2023/06/27 11:48:21;;;;;;;0.10;0.10;;;25.70;99.90;;;;;;5024591;28;20053;-73
2023/06/27 11:51:08;;;;;;;0.00;0.00;;;25.40;99.90;;;;;;5023463;28;20153;-72
2023/06/27 11:53:35;;;;;;;0.00;0.00;;;25.50;99.90;;;;;;5024392;28;20887;-73
2023/06/27 11:56:02;;;;;;;5.88;0.80;;;25.50;99.90;;;;;;5024855;28;20045;-73
2023/06/27 11:58:40;;;;;;;0.22;0.17;;;25.10;99.90;;;;;;5024317;28;20049;-73
2023/06/27 12:01:14;;;;;;;0.10;0.03;;;24.80;99.90;;;;;;5023877;28;20060;-73
2023/06/27 12:03:50;;;;;;;0.13;0.10;;;25.30;99.90;;;;;;5024087;28;20045;-73
2023/06/27 12:06:26;;;;;;;0.10;0.10;;;24.80;99.90;;;;;;5024516;28;20053;-73
2023/06/27 12:08:53;;;;;;;0.10;0.10;;;25.20;99.90;;;;;;5024143;28;20049;-73
2023/06/27 12:11:28;;;;;;;0.10;0.10;;;25.50;99.90;;;;;;5024007;28;20065;-73
2023/06/27 12:13:53;;;;;;;0.00;0.00;;;25.30;99.90;;;;;;5024709;28;20060;-73
2023/06/27 12:16:27;;;;;;;0.00;0.00;;;25.10;99.90;;;;;;5024260;28;20049;-73
2023/06/27 12:19:01;;;;;;;0.38;0.30;;;24.90;99.90;;;;;;5024404;28;20120;-73
2023/06/27 12:21:27;;;;;;;0.03;0.03;;;24.50;99.90;;;;;;5024606;28;20049;-73
2023/06/27 12:23:53;;;;;;;1.77;0.50;;;24.40;99.90;;;;;;5024016;28;20396;-73
2023/06/27 12:26:19;;;;;;;0.00;0.00;;;24.30;99.90;;;;;;5024351;28;20081;-73
2023/06/27 12:28:55;;;;;;;2.75;0.30;;;23.90;99.90;;;;;;5023774;28;20076;-73
2023/06/27 12:31:21;;;;;;;0.32;0.13;;;24.20;99.90;;;;;;5023963;28;20049;-73
2023/06/27 12:33:46;;;;;;;0.10;0.10;;;24.20;99.90;;;;;;5024175;28;20041;-73
2023/06/27 12:36:14;;;;;;;0.20;0.20;;;24.20;99.90;;;;;;5023858;28;20073;-72
2023/06/27 12:38:40;;;;;;;0.10;0.10;;;24.30;99.90;;;;;;5023496;28;20455;-72
2023/06/27 12:41:06;;;;;;;0.00;0.00;;;24.50;99.90;;;;;;5029358;28;20376;-72
2023/06/27 12:43:31;;;;;;;0.20;0.10;;;24.50;99.90;;;;;;5044198;28;20040;-73
2023/06/27 12:46:04;;;;;;;2.38;0.45;;;24.60;99.90;;;;;;5041974;28;20472;-73
2023/06/27 12:48:37;;;;;;;0.03;0.03;;;24.60;99.90;;;;;;5041121;28;20106;-73
2023/06/27 12:51:02;;;;;;;0.45;0.40;;;24.40;99.90;;;;;;5040160;28;20420;-72